Time;durP1;ratioP1;P1;durP2;ratioP2;P2;SDS_P1;SDS_P2;PMS_P1;PMS_P2;Temp;Humidity;BMP_temperature;BMP_pressure;BME280_temperature;BME280_humidity;BME280_pressure;Samples;Min_cycle;Max_cycle;Signal;HPM_P1;HPM_P2
2022/02/05 00:01:22;;;;;;;;;;;5.10;99.90;;;;;;5079416;28;20333;-77
2022/02/05 00:03:55;;;;;;;;;;;5.20;99.90;;;;;;5084066;28;19912;-76
2022/02/05 00:06:25;;;;;;;;;;;5.20;99.90;;;;;;5065824;28;19912;-76
2022/02/05 00:09:06;;;;;;;;;;;5.30;99.90;;;;;;5110225;28;19931;-77
2022/02/05 00:12:47;;;;;;;;;;;5.30;99.90;;;;;;5093470;28;19916;-78
2022/02/05 00:14:49;;;;;;;;;;;5.30;99.90;;;;;;5091342;28;19920;-75
2022/02/05 00:41:26;;;;;;;;;;;5.00;99.90;;;;;;5101713;28;19953;-75
2022/02/05 00:43:55;;;;;;;;;;;5.10;99.90;;;;;;5102952;28;19916;-76
2022/02/05 00:46:22;;;;;;;;;;;5.10;99.90;;;;;;5107688;28;20226;-76
2022/02/05 00:48:49;;;;;;;;;;;5.10;99.90;;;;;;5103190;28;20007;-75
2022/02/05 00:51:20;;;;;;;;;;;5.10;99.90;;;;;;5087210;28;19912;-76
2022/02/05 00:53:56;;;;;;;;;;;5.10;99.90;;;;;;5097784;28;19916;-78
2022/02/05 00:56:36;;;;;;;;;;;5.10;99.90;;;;;;5105674;28;19923;-76
2022/02/05 00:59:01;;;;;;;;;;;5.10;99.90;;;;;;5096848;28;19912;-76
2022/02/05 01:01:27;;;;;;;;;;;5.10;99.90;;;;;;5104135;28;20199;-75
2022/02/05 01:03:52;;;;;;;;;;;5.00;99.90;;;;;;5102713;28;19935;-76
2022/02/05 01:06:18;;;;;;;;;;;4.90;99.90;;;;;;5101321;28;19916;-76
2022/02/05 01:08:44;;;;;;;;;;;4.90;99.90;;;;;;5085336;28;19920;-79
2022/02/05 01:11:11;;;;;;;;;;;4.90;99.90;;;;;;5105290;28;19965;-78
2022/02/05 01:13:36;;;;;;;;;;;4.80;99.90;;;;;;5083439;28;20234;-75
2022/02/05 01:16:11;;;;;;;;;;;4.80;99.90;;;;;;5087499;28;19981;-77
2022/02/05 01:18:39;;;;;;;;;;;4.80;99.90;;;;;;5108704;27;19934;-74
2022/02/05 01:21:11;;;;;;;;;;;4.70;99.90;;;;;;5088948;28;20299;-78
2022/02/05 01:26:27;;;;;;;;;;;4.70;99.90;;;;;;5100797;28;19912;-75
2022/02/05 01:28:59;;;;;;;;;;;4.70;99.90;;;;;;5087321;28;19943;-76
2022/02/05 01:31:30;;;;;;;;;;;4.60;99.90;;;;;;5101955;28;19987;-76
2022/02/05 01:34:37;;;;;;;;;;;4.60;99.90;;;;;;5085381;28;19998;-76
2022/02/05 01:53:06;;;;;;;;;;;4.50;99.90;;;;;;5109160;28;19974;-77
2022/02/05 01:55:56;;;;;;;;;;;4.50;99.90;;;;;;5099548;28;20015;-76
2022/02/05 02:11:47;;;;;;;;;;;4.60;99.90;;;;;;5108516;28;19996;-75
2022/02/05 02:19:36;;;;;;;;;;;4.60;99.90;;;;;;5101535;28;19968;-76
2022/02/05 02:22:10;;;;;;;;;;;4.60;99.90;;;;;;5086831;28;19919;-76
2022/02/05 02:27:33;;;;;;;;;;;4.60;99.90;;;;;;5095823;28;19912;-75
2022/02/05 02:32:32;;;;;;;;;;;4.60;99.90;;;;;;5116772;28;19916;-76
2022/02/05 02:35:07;;;;;;;;;;;4.70;99.90;;;;;;5112129;28;20311;-77
2022/02/05 02:37:43;;;;;;;;;;;4.70;99.90;;;;;;5083946;28;19954;-77
2022/02/05 02:40:24;;;;;;;;;;;4.60;99.90;;;;;;5085328;28;19911;-76
2022/02/05 02:42:53;;;;;;;;;;;4.70;99.90;;;;;;5080340;28;20282;-76
2022/02/05 02:45:19;;;;;;;;;;;4.70;99.90;;;;;;5097570;28;19963;-75
2022/02/05 02:47:45;;;;;;;;;;;4.60;99.90;;;;;;5083533;28;19967;-77
2022/02/05 02:56:24;;;;;;;;;;;4.60;99.90;;;;;;5103239;28;20311;-77
2022/02/05 02:58:30;;;;;;;;;;;4.60;99.90;;;;;;5111680;28;19962;-75
2022/02/05 03:00:58;;;;;;;;;;;4.60;99.90;;;;;;5117419;28;19915;-77
2022/02/05 03:03:25;;;;;;;;;;;4.60;99.90;;;;;;5103634;28;20049;-75
2022/02/05 03:05:50;;;;;;;;;;;4.70;99.90;;;;;;5085708;28;19919;-75
2022/02/05 03:08:16;;;;;;;;;;;4.70;99.90;;;;;;5094145;28;19927;-75
2022/02/05 03:10:42;;;;;;;;;;;4.80;99.90;;;;;;5105913;28;19922;-76
2022/02/05 03:13:07;;;;;;;;;;;4.80;99.90;;;;;;5090352;28;20188;-78
2022/02/05 03:15:38;;;;;;;;;;;4.80;99.90;;;;;;5107972;28;19916;-76
2022/02/05 03:18:08;;;;;;;;;;;4.80;99.90;;;;;;5102083;28;19916;-78
2022/02/05 03:20:34;;;;;;;;;;;4.80;99.90;;;;;;5110103;28;20226;-75
2022/02/05 03:23:00;;;;;;;;;;;4.80;99.90;;;;;;5111084;28;19911;-79
2022/02/05 03:25:27;;;;;;;;;;;4.80;99.90;;;;;;5110275;28;20110;-75
2022/02/05 03:27:52;;;;;;;;;;;4.80;99.90;;;;;;5111740;28;19959;-75
2022/02/05 03:30:18;;;;;;;;;;;4.80;99.90;;;;;;5106234;28;20015;-76
2022/02/05 03:32:43;;;;;;;;;;;4.80;99.90;;;;;;5082476;28;19930;-77
2022/02/05 03:35:09;;;;;;;;;;;4.70;99.90;;;;;;5089537;28;19912;-75
2022/02/05 03:37:34;;;;;;;;;;;4.70;99.90;;;;;;5103347;28;19912;-76
2022/02/05 03:40:00;;;;;;;;;;;4.80;99.90;;;;;;5087175;28;20003;-77
2022/02/05 03:42:26;;;;;;;;;;;4.80;99.90;;;;;;5107802;28;19916;-77
2022/02/05 03:44:51;;;;;;;;;;;4.70;99.90;;;;;;5114237;28;19998;-78
2022/02/05 03:47:17;;;;;;;;;;;4.70;99.90;;;;;;5108248;28;19916;-76
2022/02/05 03:49:43;;;;;;;;;;;4.70;99.90;;;;;;5088266;28;19919;-78
2022/02/05 03:52:09;;;;;;;;;;;4.70;99.90;;;;;;5090746;28;19916;-78
2022/02/05 03:54:35;;;;;;;;;;;4.70;99.90;;;;;;5111631;28;19972;-77
2022/02/05 03:57:00;;;;;;;;;;;4.70;99.90;;;;;;5109666;28;19916;-77
2022/02/05 03:59:26;;;;;;;;;;;4.60;99.90;;;;;;5108098;28;20360;-78
2022/02/05 04:01:53;;;;;;;;;;;4.60;99.90;;;;;;5110584;28;20294;-78
2022/02/05 04:04:20;;;;;;;;;;;4.60;99.90;;;;;;5110703;28;19912;-77
2022/02/05 04:06:45;;;;;;;;;;;4.70;99.90;;;;;;5090591;28;19920;-78
2022/02/05 04:09:20;;;;;;;;;;;4.60;99.90;;;;;;5089496;28;19930;-78
2022/02/05 04:17:15;;;;;;;;;;;4.70;99.90;;;;;;5108408;28;20314;-78
2022/02/05 04:19:41;;;;;;;;;;;4.60;99.90;;;;;;5089330;28;19912;-78
2022/02/05 04:22:07;;;;;;;;;;;4.60;99.90;;;;;;5103798;28;19919;-77
2022/02/05 04:24:33;;;;;;;;;;;4.60;99.90;;;;;;5115841;28;19916;-76
2022/02/05 04:26:58;;;;;;;;;;;4.60;99.90;;;;;;5104078;28;19916;-79
2022/02/05 04:29:24;;;;;;;;;;;4.60;99.90;;;;;;5105363;28;19916;-75
2022/02/05 04:31:49;;;;;;;;;;;4.60;99.90;;;;;;5111501;28;19912;-76
2022/02/05 04:34:15;;;;;;;;;;;4.60;99.90;;;;;;5105324;27;19997;-77
2022/02/05 04:36:41;;;;;;;;;;;4.60;99.90;;;;;;5112792;28;19912;-76
2022/02/05 04:39:13;;;;;;;;;;;4.50;99.90;;;;;;5108878;28;19916;-75
2022/02/05 04:42:03;;;;;;;;;;;4.50;99.90;;;;;;5082091;28;20373;-75
2022/02/05 04:52:21;;;;;;;;;;;4.30;99.90;;;;;;5099469;28;20332;-77
2022/02/05 05:05:25;;;;;;;;;;;4.30;99.90;;;;;;5106899;28;19916;-75
2022/02/05 05:20:49;;;;;;;;;;;4.30;99.90;;;;;;5099018;28;19919;-78
2022/02/05 05:23:14;;;;;;;;;;;4.20;99.90;;;;;;5109053;28;19916;-77
2022/02/05 05:25:40;;;;;;;;;;;4.30;99.90;;;;;;5082323;28;20265;-75
2022/02/05 05:28:05;;;;;;;;;;;4.30;99.90;;;;;;5091075;28;19927;-77
2022/02/05 05:30:31;;;;;;;;;;;4.30;99.90;;;;;;5100694;28;19912;-75
2022/02/05 05:32:56;;;;;;;;;;;4.30;99.90;;;;;;5109617;27;20344;-75
2022/02/05 05:35:22;;;;;;;;;;;4.30;99.90;;;;;;5082526;28;20236;-75
2022/02/05 05:37:48;;;;;;;;;;;4.30;99.90;;;;;;5100150;28;19955;-76
2022/02/05 05:40:15;;;;;;;;;;;4.30;99.90;;;;;;5083162;28;19920;-76
2022/02/05 05:42:45;;;;;;;;;;;4.20;99.90;;;;;;5081978;28;19960;-77
2022/02/05 05:47:52;;;;;;;;;;;4.10;99.90;;;;;;5100055;28;19923;-76
2022/02/05 05:53:03;;;;;;;;;;;4.00;99.90;;;;;;5099490;28;19919;-77
2022/02/05 05:55:29;;;;;;;;;;;4.00;99.90;;;;;;5089882;28;19919;-76
2022/02/05 05:57:55;;;;;;;;;;;4.00;99.90;;;;;;5109706;28;20246;-78
2022/02/05 06:00:21;;;;;;;;;;;4.10;99.90;;;;;;5103144;28;19920;-76
2022/02/05 06:02:47;;;;;;;;;;;4.20;99.90;;;;;;5083352;28;19923;-75
2022/02/05 06:05:12;;;;;;;;;;;4.20;99.90;;;;;;5089682;28;19911;-77
2022/02/05 06:07:38;;;;;;;;;;;4.20;99.90;;;;;;5101814;28;19920;-79
2022/02/05 06:10:04;;;;;;;;;;;4.20;99.90;;;;;;5086844;28;19919;-79
2022/02/05 06:12:29;;;;;;;;;;;4.20;99.90;;;;;;5085587;28;19960;-78
2022/02/05 06:14:57;;;;;;;;;;;4.20;99.90;;;;;;5086666;28;20303;-78
2022/02/05 06:17:25;;;;;;;;;;;4.10;99.90;;;;;;5090536;28;19918;-77
2022/02/05 06:19:50;;;;;;;;;;;4.10;99.90;;;;;;5086946;28;19955;-76
2022/02/05 06:22:16;;;;;;;;;;;4.00;99.90;;;;;;5086662;28;19979;-77
2022/02/05 06:24:42;;;;;;;;;;;3.90;99.90;;;;;;5085135;28;19916;-77
2022/02/05 06:27:07;;;;;;;;;;;3.80;99.90;;;;;;5112038;28;19923;-77
2022/02/05 06:29:33;;;;;;;;;;;3.70;99.90;;;;;;5104220;28;19919;-77
2022/02/05 06:31:59;;;;;;;;;;;3.60;99.90;;;;;;5109164;28;19916;-77
2022/02/05 06:34:25;;;;;;;;;;;3.50;99.90;;;;;;5090254;28;19912;-78
2022/02/05 06:36:51;;;;;;;;;;;3.50;99.90;;;;;;5110171;28;19913;-78
2022/02/05 06:39:16;;;;;;;;;;;3.40;99.90;;;;;;5085543;28;19927;-78
2022/02/05 06:41:42;;;;;;;;;;;3.30;99.90;;;;;;5102977;28;19923;-79
2022/02/05 06:44:08;;;;;;;;;;;3.30;99.90;;;;;;5078858;28;19916;-77
2022/02/05 06:46:33;;;;;;;;;;;3.30;99.90;;;;;;5079343;28;19920;-78
2022/02/05 06:48:59;;;;;;;;;;;3.20;99.90;;;;;;5109873;28;19916;-78
2022/02/05 06:51:24;;;;;;;;;;;3.20;99.90;;;;;;5089856;28;20042;-78
2022/02/05 06:53:50;;;;;;;;;;;3.20;99.90;;;;;;5084402;28;20319;-79
2022/02/05 06:56:15;;;;;;;;;;;3.20;99.90;;;;;;5111543;28;19916;-80
2022/02/05 06:58:41;;;;;;;;;;;3.20;99.90;;;;;;5115118;28;19919;-79
2022/02/05 07:01:06;;;;;;;;;;;3.20;99.90;;;;;;5108666;28;19920;-79
2022/02/05 07:03:32;;;;;;;;;;;3.10;99.90;;;;;;5103036;28;19912;-79
2022/02/05 07:05:57;;;;;;;;;;;3.10;99.90;;;;;;5115223;28;20602;-78
2022/02/05 07:08:23;;;;;;;;;;;3.00;99.90;;;;;;5098587;28;20304;-79
2022/02/05 07:10:50;;;;;;;;;;;3.10;99.90;;;;;;5115081;28;20211;-78
2022/02/05 07:13:18;;;;;;;;;;;3.10;99.90;;;;;;5113488;28;20038;-77
2022/02/05 07:15:58;;;;;;;;;;;3.00;99.90;;;;;;5102127;28;20002;-78
2022/02/05 07:18:36;;;;;;;;;;;3.00;99.90;;;;;;5080531;28;19919;-78
2022/02/05 07:21:11;;;;;;;;;;;3.00;99.90;;;;;;5080084;28;19931;-78
2022/02/05 07:29:16;;;;;;;;;;;3.10;99.90;;;;;;5103446;28;19926;-77
2022/02/05 07:31:50;;;;;;;;;;;3.10;99.90;;;;;;5090055;28;19912;-77
2022/02/05 07:34:17;;;;;;;;;;;3.20;99.90;;;;;;5107763;28;20215;-77
2022/02/05 07:36:43;;;;;;;;;;;3.20;99.90;;;;;;5113302;28;19916;-78
2022/02/05 07:39:09;;;;;;;;;;;3.30;99.90;;;;;;5090542;28;19916;-78
2022/02/05 07:41:36;;;;;;;;;;;3.30;99.90;;;;;;5108093;28;20344;-78
2022/02/05 07:44:02;;;;;;;;;;;3.40;99.90;;;;;;5110667;28;19989;-77
2022/02/05 07:46:28;;;;;;;;;;;3.40;99.90;;;;;;5111828;28;20003;-77
2022/02/05 07:48:54;;;;;;;;;;;3.60;99.90;;;;;;5108274;28;20006;-77
2022/02/05 07:51:19;;;;;;;;;;;3.60;99.90;;;;;;5114001;28;19912;-77
2022/02/05 07:53:46;;;;;;;;;;;3.60;99.90;;;;;;5106028;28;19911;-78
2022/02/05 07:56:12;;;;;;;;;;;3.60;99.90;;;;;;5109383;28;19961;-77
2022/02/05 07:58:38;;;;;;;;;;;3.70;99.90;;;;;;5090105;28;20215;-77
2022/02/05 08:01:04;;;;;;;;;;;3.70;99.90;;;;;;5102536;28;19927;-78
2022/02/05 08:03:30;;;;;;;;;;;3.80;99.90;;;;;;5102355;28;20230;-78
2022/02/05 08:06:00;;;;;;;;;;;3.80;99.90;;;;;;5115236;28;19911;-78
2022/02/05 08:08:28;;;;;;;;;;;3.90;99.90;;;;;;5093464;28;20022;-78
2022/02/05 08:10:57;;;;;;;;;;;4.00;99.90;;;;;;5113005;28;19951;-77
2022/02/05 08:13:25;;;;;;;;;;;4.00;99.90;;;;;;5093835;28;19967;-78
2022/02/05 08:15:55;;;;;;;;;;;4.10;99.90;;;;;;5094415;28;19916;-78
2022/02/05 08:18:21;;;;;;;;;;;4.10;99.90;;;;;;5115130;28;19954;-78
2022/02/05 08:20:46;;;;;;;;;;;4.10;99.90;;;;;;5114011;28;19953;-79
2022/02/05 08:23:12;;;;;;;;;;;4.10;99.90;;;;;;5113426;28;19960;-78
2022/02/05 08:25:37;;;;;;;;;;;4.10;99.90;;;;;;5111733;28;19920;-78
2022/02/05 08:28:03;;;;;;;;;;;4.10;99.90;;;;;;5095813;28;20315;-78
2022/02/05 08:30:29;;;;;;;;;;;4.20;99.90;;;;;;5096611;28;19952;-78
2022/02/05 08:32:54;;;;;;;;;;;4.30;99.90;;;;;;5111986;28;20007;-78
2022/02/05 08:35:20;;;;;;;;;;;4.30;99.90;;;;;;5116183;28;20230;-78
2022/02/05 08:37:48;;;;;;;;;;;4.40;99.90;;;;;;5114966;28;20401;-77
2022/02/05 08:40:14;;;;;;;;;;;4.40;99.90;;;;;;5086839;28;20356;-77
2022/02/05 08:42:40;;;;;;;;;;;4.50;99.90;;;;;;5091150;28;20028;-77
2022/02/05 08:45:06;;;;;;;;;;;4.50;99.90;;;;;;5113103;28;21629;-78
2022/02/05 08:47:31;;;;;;;;;;;4.70;99.90;;;;;;5097324;28;20256;-78
2022/02/05 08:49:57;;;;;;;;;;;4.70;99.90;;;;;;5087615;28;19912;-78
2022/02/05 08:52:23;;;;;;;;;;;4.80;99.90;;;;;;5083064;28;20653;-79
2022/02/05 08:54:49;;;;;;;;;;;4.90;99.90;;;;;;5088158;28;19912;-77
2022/02/05 08:57:14;;;;;;;;;;;4.90;99.90;;;;;;5103633;28;20321;-79
2022/02/05 09:02:20;;;;;;;;;;;5.00;99.90;;;;;;5102673;28;19999;-78
2022/02/05 09:04:50;;;;;;;;;;;5.10;99.90;;;;;;5087777;28;19923;-78
2022/02/05 09:07:16;;;;;;;;;;;5.20;99.90;;;;;;5089814;28;19969;-78
2022/02/05 09:12:32;;;;;;;;;;;5.30;99.90;;;;;;5112389;28;19937;-78
2022/02/05 09:14:58;;;;;;;;;;;5.30;99.90;;;;;;5111995;28;19972;-78
2022/02/05 09:17:24;;;;;;;;;;;5.30;99.90;;;;;;5106914;28;20011;-79
2022/02/05 09:19:50;;;;;;;;;;;5.40;99.90;;;;;;5092323;28;20011;-77
2022/02/05 09:22:16;;;;;;;;;;;5.40;99.90;;;;;;5113178;28;19994;-78
2022/02/05 09:24:42;;;;;;;;;;;5.40;99.90;;;;;;5110359;28;20257;-79
2022/02/05 09:27:11;;;;;;;;;;;5.50;99.90;;;;;;5098701;28;19916;-77
2022/02/05 09:29:45;;;;;;;;;;;5.60;99.90;;;;;;5077827;28;19924;-75
2022/02/05 09:32:10;;;;;;;;;;;5.60;99.90;;;;;;5106431;28;19957;-78
2022/02/05 09:34:36;;;;;;;;;;;5.70;99.90;;;;;;5108284;28;19995;-77
2022/02/05 09:37:02;;;;;;;;;;;5.80;99.90;;;;;;5082206;28;19962;-79
2022/02/05 09:39:27;;;;;;;;;;;5.80;99.90;;;;;;5090495;28;19965;-78
2022/02/05 09:41:53;;;;;;;;;;;5.90;99.90;;;;;;5105434;28;19924;-79
2022/02/05 09:44:18;;;;;;;;;;;5.90;99.90;;;;;;5112893;28;19919;-77
2022/02/05 09:46:44;;;;;;;;;;;5.90;99.90;;;;;;5089094;28;20196;-78
2022/02/05 09:49:15;;;;;;;;;;;6.00;99.90;;;;;;5097233;28;20264;-80
2022/02/05 09:51:46;;;;;;;;;;;6.10;99.90;;;;;;5084546;28;19912;-79
2022/02/05 09:54:12;;;;;;;;;;;6.30;99.90;;;;;;5094795;28;19912;-78
2022/02/05 09:56:40;;;;;;;;;;;6.40;99.90;;;;;;5080044;28;19916;-76
2022/02/05 09:59:06;;;;;;;;;;;6.50;99.90;;;;;;5088620;28;19916;-80
2022/02/05 10:01:35;;;;;;;;;;;6.60;99.90;;;;;;5090870;28;20589;-78
2022/02/05 10:04:04;;;;;;;;;;;6.80;99.90;;;;;;5083816;28;19924;-77
2022/02/05 10:06:38;;;;;;;;;;;7.00;99.90;;;;;;5094120;28;19926;-80
2022/02/05 10:09:11;;;;;;;;;;;7.30;99.90;;;;;;5067176;28;20233;-76
2022/02/05 10:11:48;;;;;;;;;;;7.20;99.90;;;;;;5078730;28;20330;-77
2022/02/05 10:14:24;;;;;;;;;;;7.20;99.90;;;;;;5070114;28;19908;-76
2022/02/05 10:16:50;;;;;;;;;;;7.40;99.90;;;;;;5071403;28;20287;-79
2022/02/05 10:19:16;;;;;;;;;;;7.20;99.90;;;;;;5070145;28;19908;-76
2022/02/05 10:21:42;;;;;;;;;;;7.10;99.90;;;;;;5086986;28;20341;-79
2022/02/05 10:24:09;;;;;;;;;;;7.20;99.90;;;;;;5070989;28;19916;-76
2022/02/05 10:26:37;;;;;;;;;;;7.20;99.90;;;;;;5088101;28;19936;-77
2022/02/05 10:29:16;;;;;;;;;;;7.20;99.90;;;;;;5090620;28;19924;-77
2022/02/05 10:31:59;;;;;;;;;;;7.50;99.90;;;;;;5069325;28;19943;-77
2022/02/05 10:34:26;;;;;;;;;;;7.70;99.90;;;;;;5073904;28;19960;-78
2022/02/05 10:37:22;;;;;;;;;;;7.90;99.90;;;;;;5074938;28;19912;-77
2022/02/05 10:40:15;;;;;;;;;;;7.90;99.90;;;;;;5074517;28;19916;-76
2022/02/05 10:43:03;;;;;;;;;;;7.90;99.90;;;;;;5079772;28;19912;-77
2022/02/05 10:45:42;;;;;;;;;;;7.80;99.90;;;;;;5071869;28;19916;-76
2022/02/05 10:48:09;;;;;;;;;;;7.70;99.90;;;;;;5073052;28;20006;-75
2022/02/05 10:50:34;;;;;;;;;;;7.70;99.90;;;;;;5085282;28;19908;-78
2022/02/05 10:53:16;;;;;;;;;;;7.60;99.90;;;;;;5087247;28;19919;-76
2022/02/05 11:06:43;;;;;;;;;;;7.70;99.90;;;;;;5088539;28;19957;-74
2022/02/05 11:09:09;;;;;;;;;;;7.80;99.90;;;;;;5107405;28;19923;-73
2022/02/05 11:12:20;;;;;;;;;;;7.90;99.90;;;;;;5103601;28;20019;-74
2022/02/05 11:19:55;;;;;;;;;;;8.00;99.90;;;;;;5110932;28;19929;-74
2022/02/05 11:22:22;;;;;;;;;;;8.10;99.90;;;;;;5100575;28;19918;-74
2022/02/05 11:24:48;;;;;;;;;;;8.20;99.90;;;;;;5089309;28;19912;-72
2022/02/05 11:27:14;;;;;;;;;;;8.40;99.90;;;;;;5110340;28;20215;-73
2022/02/05 11:29:39;;;;;;;;;;;8.50;99.90;;;;;;5118633;28;19920;-72
2022/02/05 11:32:20;;;;;;;;;;;8.60;99.90;;;;;;5114586;28;19959;-72
2022/02/05 11:34:57;;;;;;;;;;;8.70;99.90;;;;;;5081172;28;19934;-72
2022/02/05 11:37:22;;;;;;;;;;;8.60;99.90;;;;;;5098647;28;19916;-70
2022/02/05 11:39:49;;;;;;;;;;;8.50;99.90;;;;;;5080308;28;20234;-71
2022/02/05 11:42:35;;;;;;;;;;;8.40;99.90;;;;;;5080650;28;19922;-71
2022/02/05 11:45:20;;;;;;;;;;;8.50;99.90;;;;;;5109876;28;19912;-70
2022/02/05 11:47:46;;;;;;;;;;;8.40;99.90;;;;;;5110295;28;19998;-72
2022/02/05 11:50:15;;;;;;;;;;;8.30;99.90;;;;;;5105542;28;20268;-71
2022/02/05 11:52:44;;;;;;;;;;;8.30;99.90;;;;;;5106040;28;20226;-73
2022/02/05 11:55:11;;;;;;;;;;;8.40;99.90;;;;;;5100787;28;19919;-72
2022/02/05 11:57:56;;;;;;;;;;;8.30;99.90;;;;;;5104924;28;19926;-72
2022/02/05 12:00:28;;;;;;;;;;;8.20;99.90;;;;;;5109523;28;19916;-72
2022/02/05 12:02:59;;;;;;;;;;;7.90;99.90;;;;;;5091255;28;20002;-71
2022/02/05 12:05:32;;;;;;;;;;;8.00;99.90;;;;;;5109371;28;19916;-72
2022/02/05 12:08:04;;;;;;;;;;;8.10;99.90;;;;;;5110843;28;20330;-73
2022/02/05 12:10:32;;;;;;;;;;;8.20;99.90;;;;;;5109393;28;20022;-70
2022/02/05 12:13:14;;;;;;;;;;;8.20;99.90;;;;;;5092655;28;19916;-74
2022/02/05 12:15:39;;;;;;;;;;;8.20;99.90;;;;;;5103940;28;19916;-74
2022/02/05 12:20:50;;;;;;;;;;;8.60;99.90;;;;;;5115398;28;19915;-72
2022/02/05 12:25:59;;;;;;;;;;;8.60;99.90;;;;;;5107635;28;19935;-76
2022/02/05 12:28:43;;;;;;;;;;;8.70;99.90;;;;;;5114693;28;20374;-72
2022/02/05 12:31:18;;;;;;;;;;;8.80;99.90;;;;;;5115587;28;19998;-72
2022/02/05 12:33:48;;;;;;;;;;;8.40;99.90;;;;;;5114035;28;21574;-74
2022/02/05 12:36:14;;;;;;;;;;;8.30;99.90;;;;;;5113761;28;19912;-70
2022/02/05 12:38:43;;;;;;;;;;;8.10;99.90;;;;;;5109201;28;19912;-70
2022/02/05 12:41:12;;;;;;;;;;;8.10;99.90;;;;;;5109325;28;20286;-71
2022/02/05 12:43:52;;;;;;;;;;;8.20;99.90;;;;;;5097077;28;19916;-72
2022/02/05 12:46:19;;;;;;;;;;;8.30;99.90;;;;;;5092285;28;19912;-71
2022/02/05 12:48:48;;;;;;;;;;;8.40;99.90;;;;;;5092010;28;19981;-71
2022/02/05 12:51:15;;;;;;;;;;;8.40;99.90;;;;;;5083572;28;19916;-73
2022/02/05 12:53:43;;;;;;;;;;;8.40;99.90;;;;;;5110631;28;19915;-71
2022/02/05 12:56:12;;;;;;;;;;;8.30;99.90;;;;;;5097081;28;19915;-71
2022/02/05 12:59:15;;;;;;;;;;;8.40;99.90;;;;;;5107586;28;19959;-73
2022/02/05 13:02:01;;;;;;;;;;;8.40;99.90;;;;;;5014394;28;19918;-71
2022/02/05 13:04:31;;;;;;;;;;;8.40;99.90;;;;;;4994719;28;20096;-72
2022/02/05 13:07:00;;;;;;;;;;;8.10;99.90;;;;;;4988453;28;19917;-71
2022/02/05 13:09:28;;;;;;;;;;;8.10;99.90;;;;;;5012886;28;20033;-70
2022/02/05 13:11:55;;;;;;;;;;;8.20;99.90;;;;;;5014306;28;19918;-70
2022/02/05 13:14:21;;;;;;;;;;;8.20;99.90;;;;;;4994372;28;20019;-72
2022/02/05 13:16:48;;;;;;;;;;;8.20;99.90;;;;;;5012662;28;19968;-72
2022/02/05 13:19:24;;;;;;;;;;;8.40;99.90;;;;;;4996854;28;19925;-71
2022/02/05 13:27:26;;;;;;;;;;;8.20;99.90;;;;;;5012183;28;20017;-70
2022/02/05 13:33:33;;;;;;;;;;;8.20;99.90;;;;;;5013298;28;19921;-71
2022/02/05 13:35:24;;;;;;;;;;;8.10;99.90;;;;;;5014308;28;20004;-74
2022/02/05 13:37:54;;;;;;;;;;;7.80;99.90;;;;;;5062415;28;19923;-72
2022/02/05 13:40:23;;;;;;;;;;;7.90;99.90;;;;;;5115460;28;19908;-72
2022/02/05 13:42:51;;;;;;;;;;;8.00;99.90;;;;;;5088034;28;19922;-72
2022/02/05 13:45:35;;;;;;;;;;;8.00;99.90;;;;;;5077984;28;19912;-72
2022/02/05 13:48:02;;;;;;;;;;;7.80;99.90;;;;;;5106126;28;19912;-72
2022/02/05 13:50:31;;;;;;;;;;;7.80;99.90;;;;;;5109710;28;19966;-73
2022/02/05 13:53:05;;;;;;;;;;;7.80;99.90;;;;;;5112980;28;20318;-72
2022/02/05 13:55:32;;;;;;;;;;;7.90;99.90;;;;;;5109461;28;19912;-73
2022/02/05 13:58:03;;;;;;;;;;;7.80;99.90;;;;;;5079244;28;19976;-73
2022/02/05 14:00:36;;;;;;;;;;;7.80;99.90;;;;;;5082873;28;19982;-73
2022/02/05 14:03:03;;;;;;;;;;;7.80;99.90;;;;;;5115065;28;19911;-71
2022/02/05 14:05:29;;;;;;;;;;;7.70;99.90;;;;;;5097469;27;19912;-72
2022/02/05 14:07:54;;;;;;;;;;;7.60;99.90;;;;;;5080674;28;20203;-74
2022/02/05 14:10:21;;;;;;;;;;;7.60;99.90;;;;;;5106616;28;19966;-73
2022/02/05 14:12:50;;;;;;;;;;;7.60;99.90;;;;;;5106130;28;20200;-72
2022/02/05 14:15:17;;;;;;;;;;;7.60;99.90;;;;;;5087812;28;19912;-72
2022/02/05 14:17:43;;;;;;;;;;;7.60;99.90;;;;;;5110015;28;19926;-73
2022/02/05 14:20:11;;;;;;;;;;;7.60;99.90;;;;;;5091627;28;19912;-73
2022/02/05 14:22:39;;;;;;;;;;;7.60;99.90;;;;;;5099443;28;19943;-72
2022/02/05 14:25:05;;;;;;;;;;;7.70;99.90;;;;;;5104019;28;19919;-72
2022/02/05 14:27:32;;;;;;;;;;;7.70;99.90;;;;;;5086966;28;19911;-71
2022/02/05 14:30:07;;;;;;;;;;;7.70;99.90;;;;;;5088013;28;19991;-71
2022/02/05 14:40:42;;;;;;;;;;;7.60;99.90;;;;;;5105424;28;20329;-72
2022/02/05 14:42:59;;;;;;;;;;;7.60;99.90;;;;;;5100013;28;19955;-72
2022/02/05 14:45:25;;;;;;;;;;;7.60;99.90;;;;;;5109010;28;20018;-71
2022/02/05 14:47:50;;;;;;;;;;;7.50;99.90;;;;;;5085465;28;19934;-71
2022/02/05 14:50:16;;;;;;;;;;;7.50;99.90;;;;;;5114490;28;19915;-71
2022/02/05 14:52:41;;;;;;;;;;;7.40;99.90;;;;;;5118961;28;19989;-71
2022/02/05 14:55:07;;;;;;;;;;;7.40;99.90;;;;;;5116341;28;20443;-71
2022/02/05 14:57:33;;;;;;;;;;;7.30;99.90;;;;;;5099453;28;20010;-71
2022/02/05 14:59:58;;;;;;;;;;;7.30;99.90;;;;;;5101086;28;20229;-71
2022/02/05 15:02:24;;;;;;;;;;;7.30;99.90;;;;;;5116398;28;20055;-71
2022/02/05 15:04:49;;;;;;;;;;;7.30;99.90;;;;;;5116843;28;19999;-70
2022/02/05 15:07:17;;;;;;;;;;;7.20;99.90;;;;;;5117500;28;20017;-71
2022/02/05 15:09:43;;;;;;;;;;;7.20;99.90;;;;;;5100792;28;19923;-71
2022/02/05 15:12:09;;;;;;;;;;;7.20;99.90;;;;;;5117197;28;19915;-71
2022/02/05 15:14:34;;;;;;;;;;;7.20;99.90;;;;;;5119118;28;19916;-70
2022/02/05 15:17:00;;;;;;;;;;;7.20;99.90;;;;;;5099694;28;19912;-71
2022/02/05 15:19:25;;;;;;;;;;;7.10;99.90;;;;;;5117906;28;19915;-71
2022/02/05 15:21:51;;;;;;;;;;;7.10;99.90;;;;;;5118547;28;20310;-71
2022/02/05 15:24:17;;;;;;;;;;;7.10;99.90;;;;;;5118049;28;19915;-71
2022/02/05 15:26:42;;;;;;;;;;;7.10;99.90;;;;;;5099272;28;19920;-71
2022/02/05 15:29:11;;;;;;;;;;;7.10;99.90;;;;;;5118650;28;20011;-70
2022/02/05 15:31:41;;;;;;;;;;;7.10;99.90;;;;;;5119029;28;19912;-70
2022/02/05 15:34:08;;;;;;;;;;;7.10;99.90;;;;;;5100068;28;19966;-71
2022/02/05 15:36:44;;;;;;;;;;;7.10;99.90;;;;;;5117052;28;20018;-70
2022/02/05 15:44:28;;;;;;;;;;;7.10;99.90;;;;;;5115081;28;20621;-71
2022/02/05 15:46:54;;;;;;;;;;;7.10;99.90;;;;;;5110008;28;19924;-71
2022/02/05 15:49:19;;;;;;;;;;;7.10;99.90;;;;;;5110347;28;19916;-71
2022/02/05 15:51:45;;;;;;;;;;;7.10;99.90;;;;;;5116620;28;20006;-70
2022/02/05 15:54:13;;;;;;;;;;;7.10;99.90;;;;;;5116679;28;19916;-71
2022/02/05 15:59:06;;;;;;;;;;;7.10;99.90;;;;;;5117017;27;19970;-71
2022/02/05 16:01:32;;;;;;;;;;;7.10;99.90;;;;;;5098574;28;19961;-74
2022/02/05 16:03:57;;;;;;;;;;;7.10;99.90;;;;;;5116806;27;19916;-71
2022/02/05 16:06:23;;;;;;;;;;;7.10;99.90;;;;;;5116162;27;19916;-70
2022/02/05 16:08:49;;;;;;;;;;;7.10;99.90;;;;;;5112932;28;19927;-71
2022/02/05 16:11:17;;;;;;;;;;;7.10;99.90;;;;;;5110804;28;19912;-71
2022/02/05 16:13:45;;;;;;;;;;;7.00;99.90;;;;;;5097632;28;19951;-71
2022/02/05 16:16:11;;;;;;;;;;;7.00;99.90;;;;;;5097624;28;20282;-71
2022/02/05 16:18:36;;;;;;;;;;;7.10;99.90;;;;;;5117273;28;19915;-71
2022/02/05 16:21:02;;;;;;;;;;;7.10;99.90;;;;;;5111214;28;20007;-71
2022/02/05 16:23:27;;;;;;;;;;;7.10;99.90;;;;;;5107454;28;19915;-71
2022/02/05 16:25:53;;;;;;;;;;;7.10;99.90;;;;;;5111745;28;19923;-71
2022/02/05 16:28:19;;;;;;;;;;;7.10;99.90;;;;;;5113205;28;19923;-71
2022/02/05 16:30:45;;;;;;;;;;;7.10;99.90;;;;;;5110860;28;19912;-71
2022/02/05 16:33:16;;;;;;;;;;;7.00;99.90;;;;;;5095758;28;19923;-74
2022/02/05 16:35:47;;;;;;;;;;;7.10;99.90;;;;;;5113479;28;19920;-71
2022/02/05 16:38:18;;;;;;;;;;;7.10;99.90;;;;;;5114180;28;19990;-70
2022/02/05 16:40:45;;;;;;;;;;;7.10;99.90;;;;;;5097213;28;19923;-72
2022/02/05 16:43:11;;;;;;;;;;;7.10;99.90;;;;;;5112284;28;20025;-71
2022/02/05 16:45:38;;;;;;;;;;;7.10;99.90;;;;;;5112570;28;19999;-71
2022/02/05 16:48:05;;;;;;;;;;;7.20;99.90;;;;;;5110013;28;20238;-70
2022/02/05 16:50:31;;;;;;;;;;;7.10;99.90;;;;;;5093894;28;20314;-71
2022/02/05 16:53:01;;;;;;;;;;;7.20;99.90;;;;;;5111345;28;20516;-71
2022/02/05 16:55:27;;;;;;;;;;;7.20;99.90;;;;;;5086818;28;19923;-71
2022/02/05 16:57:52;;;;;;;;;;;7.20;99.90;;;;;;5111303;28;19912;-70
2022/02/05 17:00:18;;;;;;;;;;;7.20;99.90;;;;;;5112620;28;19919;-71
2022/02/05 17:02:44;;;;;;;;;;;7.10;99.90;;;;;;5113029;28;19966;-71
2022/02/05 17:05:10;;;;;;;;;;;7.20;99.90;;;;;;5108761;28;19958;-73
2022/02/05 17:07:35;;;;;;;;;;;7.20;99.90;;;;;;5114611;27;19916;-71
2022/02/05 17:10:01;;;;;;;;;;;7.20;99.90;;;;;;5113815;28;19945;-71
2022/02/05 17:12:26;;;;;;;;;;;7.20;99.90;;;;;;5112940;28;19916;-72
2022/02/05 17:14:53;;;;;;;;;;;7.20;99.90;;;;;;5110579;28;19996;-71
2022/02/05 17:17:20;;;;;;;;;;;7.20;99.90;;;;;;5093495;28;19930;-71
2022/02/05 17:19:58;;;;;;;;;;;7.20;99.90;;;;;;5109400;28;19919;-71
2022/02/05 17:22:25;;;;;;;;;;;7.30;99.90;;;;;;5092204;28;19938;-70
2022/02/05 17:24:51;;;;;;;;;;;7.20;99.90;;;;;;5088357;28;19911;-71
2022/02/05 17:27:16;;;;;;;;;;;7.20;99.90;;;;;;5113002;28;19942;-71
2022/02/05 17:29:42;;;;;;;;;;;7.20;99.90;;;;;;5094434;28;19963;-71
2022/02/05 17:32:07;;;;;;;;;;;7.30;99.90;;;;;;5115160;28;19916;-70